sensor_id;sensor_type;location;lat;lon;timestamp;P1;durP1;ratioP1;P2;durP2;ratioP2
34242;SDS011;20504;43.214;27.920;2022-08-19T00:02:22;27.53;;;14.90;;
34242;SDS011;20504;43.214;27.920;2022-08-19T00:04:51;20.48;;;15.73;;
34242;SDS011;20504;43.214;27.920;2022-08-19T00:07:18;17.38;;;15.50;;
34242;SDS011;20504;43.214;27.920;2022-08-19T00:12:10;17.42;;;14.15;;
34242;SDS011;20504;43.214;27.920;2022-08-19T00:14:58;22.75;;;13.60;;
34242;SDS011;20504;43.214;27.920;2022-08-19T00:17:23;20.75;;;14.57;;
34242;SDS011;20504;43.214;27.920;2022-08-19T00:19:49;17.70;;;14.90;;
34242;SDS011;20504;43.214;27.920;2022-08-19T00:22:17;20.53;;;15.33;;
34242;SDS011;20504;43.214;27.920;2022-08-19T00:24:43;16.88;;;13.13;;
34242;SDS011;20504;43.214;27.920;2022-08-19T00:27:10;17.27;;;14.50;;
34242;SDS011;20504;43.214;27.920;2022-08-19T00:29:36;16.70;;;14.27;;
34242;SDS011;20504;43.214;27.920;2022-08-19T00:32:05;19.58;;;14.50;;
34242;SDS011;20504;43.214;27.920;2022-08-19T00:34:35;17.27;;;14.63;;
34242;SDS011;20504;43.214;27.920;2022-08-19T00:37:04;15.85;;;13.38;;
34242;SDS011;20504;43.214;27.920;2022-08-19T00:39:30;16.73;;;12.98;;
34242;SDS011;20504;43.214;27.920;2022-08-19T00:41:57;14.50;;;13.00;;
34242;SDS011;20504;43.214;27.920;2022-08-19T00:44:25;17.60;;;13.57;;
34242;SDS011;20504;43.214;27.920;2022-08-19T00:46:56;15.88;;;12.82;;
34242;SDS011;20504;43.214;27.920;2022-08-19T00:49:37;19.33;;;13.50;;
34242;SDS011;20504;43.214;27.920;2022-08-19T00:52:06;16.85;;;13.45;;
34242;SDS011;20504;43.214;27.920;2022-08-19T00:54:37;17.67;;;12.75;;
34242;SDS011;20504;43.214;27.920;2022-08-19T00:57:06;15.07;;;12.30;;
34242;SDS011;20504;43.214;27.920;2022-08-19T00:59:34;15.07;;;12.95;;
34242;SDS011;20504;43.214;27.920;2022-08-19T01:02:00;15.68;;;12.63;;
34242;SDS011;20504;43.214;27.920;2022-08-19T01:04:27;15.70;;;13.23;;
34242;SDS011;20504;43.214;27.920;2022-08-19T01:06:53;15.98;;;12.50;;
34242;SDS011;20504;43.214;27.920;2022-08-19T01:09:21;13.52;;;12.07;;
34242;SDS011;20504;43.214;27.920;2022-08-19T01:11:47;19.40;;;12.03;;
34242;SDS011;20504;43.214;27.920;2022-08-19T01:14:13;23.27;;;13.37;;
34242;SDS011;20504;43.214;27.920;2022-08-19T01:16:38;15.02;;;12.05;;
34242;SDS011;20504;43.214;27.920;2022-08-19T01:19:13;15.52;;;12.10;;
34242;SDS011;20504;43.214;27.920;2022-08-19T01:21:42;15.93;;;12.32;;
34242;SDS011;20504;43.214;27.920;2022-08-19T01:24:09;14.95;;;12.88;;
34242;SDS011;20504;43.214;27.920;2022-08-19T01:26:40;15.33;;;12.60;;
34242;SDS011;20504;43.214;27.920;2022-08-19T01:29:20;16.08;;;12.38;;
34242;SDS011;20504;43.214;27.920;2022-08-19T01:31:56;16.02;;;12.38;;
34242;SDS011;20504;43.214;27.920;2022-08-19T01:34:23;18.30;;;13.93;;
34242;SDS011;20504;43.214;27.920;2022-08-19T01:36:52;17.73;;;13.95;;
34242;SDS011;20504;43.214;27.920;2022-08-19T01:39:24;20.60;;;15.80;;
34242;SDS011;20504;43.214;27.920;2022-08-19T01:41:52;24.83;;;15.70;;
34242;SDS011;20504;43.214;27.920;2022-08-19T01:44:28;21.75;;;15.93;;
34242;SDS011;20504;43.214;27.920;2022-08-19T01:46:57;24.33;;;14.88;;
34242;SDS011;20504;43.214;27.920;2022-08-19T01:49:25;21.10;;;14.65;;
34242;SDS011;20504;43.214;27.920;2022-08-19T01:51:51;21.02;;;15.18;;
34242;SDS011;20504;43.214;27.920;2022-08-19T01:54:21;19.85;;;15.35;;
34242;SDS011;20504;43.214;27.920;2022-08-19T01:56:47;21.48;;;16.05;;
34242;SDS011;20504;43.214;27.920;2022-08-19T01:59:16;21.67;;;15.88;;
34242;SDS011;20504;43.214;27.920;2022-08-19T02:01:42;29.25;;;16.30;;
34242;SDS011;20504;43.214;27.920;2022-08-19T02:04:08;20.52;;;17.75;;
34242;SDS011;20504;43.214;27.920;2022-08-19T02:06:35;26.02;;;17.60;;
34242;SDS011;20504;43.214;27.920;2022-08-19T02:09:02;20.77;;;17.13;;
34242;SDS011;20504;43.214;27.920;2022-08-19T02:11:31;26.65;;;17.30;;
34242;SDS011;20504;43.214;27.920;2022-08-19T02:16:22;21.20;;;15.65;;
34242;SDS011;20504;43.214;27.920;2022-08-19T02:18:50;21.90;;;16.52;;
34242;SDS011;20504;43.214;27.920;2022-08-19T02:21:16;20.97;;;15.50;;
34242;SDS011;20504;43.214;27.920;2022-08-19T02:23:42;23.88;;;16.35;;
34242;SDS011;20504;43.214;27.920;2022-08-19T02:26:15;23.43;;;15.80;;
34242;SDS011;20504;43.214;27.920;2022-08-19T02:28:41;19.75;;;15.32;;
34242;SDS011;20504;43.214;27.920;2022-08-19T02:31:16;20.20;;;15.65;;
34242;SDS011;20504;43.214;27.920;2022-08-19T02:33:46;19.60;;;15.38;;
34242;SDS011;20504;43.214;27.920;2022-08-19T02:36:12;20.47;;;15.80;;
34242;SDS011;20504;43.214;27.920;2022-08-19T02:38:38;22.48;;;15.40;;
34242;SDS011;20504;43.214;27.920;2022-08-19T02:43:30;27.23;;;16.30;;
34242;SDS011;20504;43.214;27.920;2022-08-19T02:46:00;22.67;;;17.13;;
34242;SDS011;20504;43.214;27.920;2022-08-19T02:48:25;25.67;;;17.95;;
34242;SDS011;20504;43.214;27.920;2022-08-19T02:50:51;25.50;;;17.13;;
34242;SDS011;20504;43.214;27.920;2022-08-19T02:53:23;23.13;;;17.67;;
34242;SDS011;20504;43.214;27.920;2022-08-19T02:55:56;23.30;;;17.27;;
34242;SDS011;20504;43.214;27.920;2022-08-19T02:58:22;24.40;;;18.77;;
34242;SDS011;20504;43.214;27.920;2022-08-19T03:00:49;25.13;;;18.27;;
34242;SDS011;20504;43.214;27.920;2022-08-19T03:03:15;25.48;;;19.70;;
34242;SDS011;20504;43.214;27.920;2022-08-19T03:05:41;28.03;;;20.93;;
34242;SDS011;20504;43.214;27.920;2022-08-19T03:08:07;31.87;;;23.03;;
34242;SDS011;20504;43.214;27.920;2022-08-19T03:10:39;31.00;;;22.83;;
34242;SDS011;20504;43.214;27.920;2022-08-19T03:13:04;33.17;;;23.58;;
34242;SDS011;20504;43.214;27.920;2022-08-19T03:15:40;32.57;;;23.23;;
34242;SDS011;20504;43.214;27.920;2022-08-19T03:18:08;29.70;;;22.20;;
34242;SDS011;20504;43.214;27.920;2022-08-19T03:20:33;32.45;;;21.48;;
34242;SDS011;20504;43.214;27.920;2022-08-19T03:22:59;29.27;;;21.83;;
34242;SDS011;20504;43.214;27.920;2022-08-19T03:27:56;26.13;;;19.42;;
34242;SDS011;20504;43.214;27.920;2022-08-19T03:30:21;28.48;;;19.88;;
34242;SDS011;20504;43.214;27.920;2022-08-19T03:32:47;27.67;;;18.92;;
34242;SDS011;20504;43.214;27.920;2022-08-19T03:35:13;25.00;;;19.83;;
34242;SDS011;20504;43.214;27.920;2022-08-19T03:37:38;26.90;;;18.80;;
34242;SDS011;20504;43.214;27.920;2022-08-19T03:40:04;25.10;;;17.73;;
34242;SDS011;20504;43.214;27.920;2022-08-19T03:42:30;24.67;;;17.83;;
34242;SDS011;20504;43.214;27.920;2022-08-19T03:44:56;29.65;;;17.42;;
34242;SDS011;20504;43.214;27.920;2022-08-19T03:47:23;24.08;;;17.63;;
34242;SDS011;20504;43.214;27.920;2022-08-19T03:49:50;24.95;;;16.88;;
34242;SDS011;20504;43.214;27.920;2022-08-19T03:52:16;22.53;;;17.87;;
34242;SDS011;20504;43.214;27.920;2022-08-19T03:54:49;24.48;;;17.23;;
34242;SDS011;20504;43.214;27.920;2022-08-19T03:57:15;21.35;;;16.15;;
34242;SDS011;20504;43.214;27.920;2022-08-19T04:02:08;20.90;;;16.10;;
34242;SDS011;20504;43.214;27.920;2022-08-19T04:04:41;21.35;;;15.93;;
34242;SDS011;20504;43.214;27.920;2022-08-19T04:07:08;25.17;;;15.50;;
34242;SDS011;20504;43.214;27.920;2022-08-19T04:09:35;19.27;;;15.48;;
34242;SDS011;20504;43.214;27.920;2022-08-19T04:12:01;23.02;;;15.45;;
34242;SDS011;20504;43.214;27.920;2022-08-19T04:14:28;21.58;;;16.02;;
34242;SDS011;20504;43.214;27.920;2022-08-19T04:16:55;23.20;;;15.98;;
34242;SDS011;20504;43.214;27.920;2022-08-19T04:19:22;19.88;;;15.32;;
34242;SDS011;20504;43.214;27.920;2022-08-19T04:21:49;23.00;;;15.90;;
34242;SDS011;20504;43.214;27.920;2022-08-19T04:24:16;23.40;;;15.25;;
34242;SDS011;20504;43.214;27.920;2022-08-19T04:26:42;23.15;;;16.92;;
34242;SDS011;20504;43.214;27.920;2022-08-19T04:29:09;27.73;;;16.73;;
34242;SDS011;20504;43.214;27.920;2022-08-19T04:31:36;23.33;;;16.67;;
34242;SDS011;20504;43.214;27.920;2022-08-19T04:34:06;22.80;;;16.67;;
34242;SDS011;20504;43.214;27.920;2022-08-19T04:36:33;20.92;;;16.77;;
34242;SDS011;20504;43.214;27.920;2022-08-19T04:39:00;25.20;;;17.98;;
34242;SDS011;20504;43.214;27.920;2022-08-19T04:41:26;30.13;;;18.55;;
34242;SDS011;20504;43.214;27.920;2022-08-19T04:44:11;26.35;;;17.33;;
34242;SDS011;20504;43.214;27.920;2022-08-19T04:46:36;22.97;;;18.37;;
34242;SDS011;20504;43.214;27.920;2022-08-19T04:49:02;28.50;;;19.13;;
34242;SDS011;20504;43.214;27.920;2022-08-19T04:51:30;27.05;;;19.55;;
34242;SDS011;20504;43.214;27.920;2022-08-19T04:53:56;23.42;;;19.35;;
34242;SDS011;20504;43.214;27.920;2022-08-19T04:56:24;26.98;;;20.17;;
34242;SDS011;20504;43.214;27.920;2022-08-19T04:58:52;23.38;;;19.40;;
34242;SDS011;20504;43.214;27.920;2022-08-19T05:01:20;25.20;;;18.95;;
34242;SDS011;20504;43.214;27.920;2022-08-19T05:03:46;23.60;;;18.25;;
34242;SDS011;20504;43.214;27.920;2022-08-19T05:08:38;26.23;;;17.57;;
34242;SDS011;20504;43.214;27.920;2022-08-19T05:11:19;25.85;;;17.75;;
34242;SDS011;20504;43.214;27.920;2022-08-19T05:13:48;22.95;;;16.58;;
34242;SDS011;20504;43.214;27.920;2022-08-19T05:16:16;23.55;;;16.40;;
34242;SDS011;20504;43.214;27.920;2022-08-19T05:18:42;24.30;;;16.92;;
34242;SDS011;20504;43.214;27.920;2022-08-19T05:21:26;24.15;;;17.10;;
34242;SDS011;20504;43.214;27.920;2022-08-19T05:24:11;22.45;;;15.98;;
34242;SDS011;20504;43.214;27.920;2022-08-19T05:29:03;21.47;;;16.43;;
34242;SDS011;20504;43.214;27.920;2022-08-19T05:31:30;28.85;;;16.17;;
34242;SDS011;20504;43.214;27.920;2022-08-19T05:33:56;26.45;;;15.52;;
34242;SDS011;20504;43.214;27.920;2022-08-19T05:36:26;20.77;;;15.05;;
34242;SDS011;20504;43.214;27.920;2022-08-19T05:38:53;17.52;;;13.10;;
34242;SDS011;20504;43.214;27.920;2022-08-19T05:41:18;19.58;;;12.65;;
34242;SDS011;20504;43.214;27.920;2022-08-19T05:43:45;24.13;;;12.13;;
34242;SDS011;20504;43.214;27.920;2022-08-19T05:46:15;15.93;;;12.18;;
34242;SDS011;20504;43.214;27.920;2022-08-19T05:48:41;14.95;;;12.63;;
34242;SDS011;20504;43.214;27.920;2022-08-19T05:51:07;16.07;;;12.77;;
34242;SDS011;20504;43.214;27.920;2022-08-19T05:53:38;20.40;;;12.13;;
34242;SDS011;20504;43.214;27.920;2022-08-19T05:56:05;20.52;;;12.27;;
34242;SDS011;20504;43.214;27.920;2022-08-19T05:58:32;19.75;;;11.95;;
34242;SDS011;20504;43.214;27.920;2022-08-19T06:01:15;14.15;;;12.02;;
34242;SDS011;20504;43.214;27.920;2022-08-19T06:03:40;19.38;;;12.40;;
34242;SDS011;20504;43.214;27.920;2022-08-19T06:06:07;17.07;;;11.77;;
34242;SDS011;20504;43.214;27.920;2022-08-19T06:08:34;18.67;;;12.27;;
34242;SDS011;20504;43.214;27.920;2022-08-19T06:13:38;17.70;;;12.48;;
34242;SDS011;20504;43.214;27.920;2022-08-19T06:16:04;21.33;;;15.63;;
34242;SDS011;20504;43.214;27.920;2022-08-19T06:18:31;16.40;;;12.13;;
34242;SDS011;20504;43.214;27.920;2022-08-19T06:21:01;18.50;;;13.20;;
34242;SDS011;20504;43.214;27.920;2022-08-19T06:23:31;14.35;;;11.93;;
34242;SDS011;20504;43.214;27.920;2022-08-19T06:26:00;24.65;;;14.18;;
34242;SDS011;20504;43.214;27.920;2022-08-19T06:28:25;22.23;;;13.20;;
34242;SDS011;20504;43.214;27.920;2022-08-19T06:30:52;18.10;;;12.85;;
34242;SDS011;20504;43.214;27.920;2022-08-19T06:33:18;16.95;;;11.95;;
34242;SDS011;20504;43.214;27.920;2022-08-19T06:35:44;18.10;;;11.83;;
34242;SDS011;20504;43.214;27.920;2022-08-19T06:38:10;15.77;;;11.63;;
34242;SDS011;20504;43.214;27.920;2022-08-19T06:40:36;17.90;;;11.40;;
34242;SDS011;20504;43.214;27.920;2022-08-19T06:43:03;16.48;;;10.80;;
34242;SDS011;20504;43.214;27.920;2022-08-19T06:55:53;15.50;;;10.15;;
34242;SDS011;20504;43.214;27.920;2022-08-19T07:04:22;17.27;;;10.68;;
34242;SDS011;20504;43.214;27.920;2022-08-19T07:06:55;14.05;;;10.38;;
34242;SDS011;20504;43.214;27.920;2022-08-19T07:12:50;16.67;;;10.05;;
34242;SDS011;20504;43.214;27.920;2022-08-19T07:18:21;14.50;;;10.23;;
34242;SDS011;20504;43.214;27.920;2022-08-19T07:21:20;15.80;;;10.10;;
34242;SDS011;20504;43.214;27.920;2022-08-19T07:32:06;17.45;;;10.73;;
34242;SDS011;20504;43.214;27.920;2022-08-19T07:34:59;15.40;;;10.43;;
34242;SDS011;20504;43.214;27.920;2022-08-19T07:37:34;19.95;;;10.23;;
34242;SDS011;20504;43.214;27.920;2022-08-19T07:40:15;15.98;;;10.13;;
34242;SDS011;20504;43.214;27.920;2022-08-19T07:42:47;12.98;;;9.70;;
34242;SDS011;20504;43.214;27.920;2022-08-19T07:45:18;14.32;;;9.27;;
34242;SDS011;20504;43.214;27.920;2022-08-19T07:48:09;15.80;;;9.52;;
34242;SDS011;20504;43.214;27.920;2022-08-19T07:54:01;15.32;;;8.95;;
34242;SDS011;20504;43.214;27.920;2022-08-19T07:57:20;10.50;;;8.82;;
34242;SDS011;20504;43.214;27.920;2022-08-19T08:00:22;15.18;;;9.43;;
34242;SDS011;20504;43.214;27.920;2022-08-19T08:03:12;19.08;;;10.73;;
34242;SDS011;20504;43.214;27.920;2022-08-19T08:05:47;13.90;;;8.25;;
34242;SDS011;20504;43.214;27.920;2022-08-19T08:08:30;15.50;;;9.10;;
34242;SDS011;20504;43.214;27.920;2022-08-19T08:11:17;14.80;;;9.73;;
34242;SDS011;20504;43.214;27.920;2022-08-19T08:13:47;18.45;;;9.43;;
34242;SDS011;20504;43.214;27.920;2022-08-19T08:16:19;14.23;;;8.40;;
34242;SDS011;20504;43.214;27.920;2022-08-19T08:18:46;17.15;;;9.48;;
34242;SDS011;20504;43.214;27.920;2022-08-19T08:21:29;15.00;;;8.85;;
34242;SDS011;20504;43.214;27.920;2022-08-19T08:24:00;13.20;;;8.45;;
34242;SDS011;20504;43.214;27.920;2022-08-19T08:27:00;14.35;;;8.60;;
34242;SDS011;20504;43.214;27.920;2022-08-19T08:35:09;14.10;;;8.30;;
34242;SDS011;20504;43.214;27.920;2022-08-19T08:37:36;11.45;;;8.10;;
34242;SDS011;20504;43.214;27.920;2022-08-19T08:40:45;13.57;;;8.10;;
34242;SDS011;20504;43.214;27.920;2022-08-19T08:45:27;16.35;;;8.77;;
34242;SDS011;20504;43.214;27.920;2022-08-19T08:48:10;12.93;;;8.65;;
34242;SDS011;20504;43.214;27.920;2022-08-19T08:50:41;21.33;;;9.95;;
34242;SDS011;20504;43.214;27.920;2022-08-19T08:53:17;13.75;;;8.75;;
34242;SDS011;20504;43.214;27.920;2022-08-19T08:58:31;16.88;;;8.65;;
34242;SDS011;20504;43.214;27.920;2022-08-19T09:01:11;12.90;;;8.05;;
34242;SDS011;20504;43.214;27.920;2022-08-19T09:03:40;14.43;;;8.13;;
34242;SDS011;20504;43.214;27.920;2022-08-19T09:06:11;15.30;;;8.27;;
34242;SDS011;20504;43.214;27.920;2022-08-19T09:11:28;14.50;;;8.07;;
34242;SDS011;20504;43.214;27.920;2022-08-19T09:22:38;15.70;;;7.78;;
34242;SDS011;20504;43.214;27.920;2022-08-19T09:28:30;13.75;;;8.48;;
34242;SDS011;20504;43.214;27.920;2022-08-19T09:31:16;17.10;;;8.23;;
34242;SDS011;20504;43.214;27.920;2022-08-19T09:34:01;14.88;;;8.13;;
34242;SDS011;20504;43.214;27.920;2022-08-19T09:36:30;13.48;;;7.97;;
34242;SDS011;20504;43.214;27.920;2022-08-19T09:38:58;12.32;;;7.68;;
34242;SDS011;20504;43.214;27.920;2022-08-19T09:44:01;17.88;;;8.32;;
34242;SDS011;20504;43.214;27.920;2022-08-19T09:46:31;9.95;;;7.30;;
34242;SDS011;20504;43.214;27.920;2022-08-19T09:48:58;15.88;;;7.55;;
34242;SDS011;20504;43.214;27.920;2022-08-19T09:51:27;13.85;;;7.75;;
34242;SDS011;20504;43.214;27.920;2022-08-19T09:53:54;13.80;;;7.72;;
34242;SDS011;20504;43.214;27.920;2022-08-19T09:56:28;16.48;;;7.75;;
34242;SDS011;20504;43.214;27.920;2022-08-19T09:59:00;15.13;;;7.93;;
34242;SDS011;20504;43.214;27.920;2022-08-19T10:01:28;14.68;;;8.23;;
34242;SDS011;20504;43.214;27.920;2022-08-19T10:04:01;11.43;;;8.15;;
34242;SDS011;20504;43.214;27.920;2022-08-19T10:08:54;20.55;;;7.80;;
34242;SDS011;20504;43.214;27.920;2022-08-19T10:11:25;11.02;;;7.57;;
34242;SDS011;20504;43.214;27.920;2022-08-19T10:14:21;13.20;;;7.72;;
34242;SDS011;20504;43.214;27.920;2022-08-19T10:16:58;14.77;;;8.05;;
34242;SDS011;20504;43.214;27.920;2022-08-19T10:19:44;14.73;;;7.72;;
34242;SDS011;20504;43.214;27.920;2022-08-19T10:22:24;13.02;;;7.57;;
34242;SDS011;20504;43.214;27.920;2022-08-19T10:24:53;13.02;;;7.97;;
34242;SDS011;20504;43.214;27.920;2022-08-19T10:27:22;11.02;;;7.43;;
34242;SDS011;20504;43.214;27.920;2022-08-19T10:29:54;14.15;;;8.07;;
34242;SDS011;20504;43.214;27.920;2022-08-19T10:32:24;14.50;;;7.68;;
34242;SDS011;20504;43.214;27.920;2022-08-19T10:34:57;14.57;;;7.40;;
34242;SDS011;20504;43.214;27.920;2022-08-19T10:37:25;12.75;;;7.30;;
34242;SDS011;20504;43.214;27.920;2022-08-19T10:40:00;16.27;;;9.32;;
34242;SDS011;20504;43.214;27.920;2022-08-19T10:42:36;14.57;;;7.90;;
34242;SDS011;20504;43.214;27.920;2022-08-19T10:45:05;13.40;;;7.43;;
34242;SDS011;20504;43.214;27.920;2022-08-19T10:47:37;16.35;;;7.18;;
34242;SDS011;20504;43.214;27.920;2022-08-19T10:50:11;13.80;;;7.53;;
34242;SDS011;20504;43.214;27.920;2022-08-19T10:53:07;11.45;;;7.15;;
34242;SDS011;20504;43.214;27.920;2022-08-19T10:55:37;9.48;;;7.55;;
34242;SDS011;20504;43.214;27.920;2022-08-19T10:58:24;11.18;;;8.45;;
34242;SDS011;20504;43.214;27.920;2022-08-19T11:00:53;13.18;;;7.97;;
34242;SDS011;20504;43.214;27.920;2022-08-19T11:03:25;15.13;;;7.97;;
34242;SDS011;20504;43.214;27.920;2022-08-19T11:05:59;13.27;;;8.10;;
34242;SDS011;20504;43.214;27.920;2022-08-19T11:08:25;12.15;;;8.43;;
34242;SDS011;20504;43.214;27.920;2022-08-19T11:13:27;14.07;;;10.80;;
34242;SDS011;20504;43.214;27.920;2022-08-19T11:16:01;16.95;;;10.80;;
34242;SDS011;20504;43.214;27.920;2022-08-19T11:18:33;13.30;;;10.45;;
34242;SDS011;20504;43.214;27.920;2022-08-19T11:21:13;17.30;;;10.38;;
34242;SDS011;20504;43.214;27.920;2022-08-19T11:23:40;15.52;;;10.35;;
34242;SDS011;20504;43.214;27.920;2022-08-19T11:26:09;13.32;;;10.73;;
34242;SDS011;20504;43.214;27.920;2022-08-19T11:28:37;18.17;;;11.38;;
34242;SDS011;20504;43.214;27.920;2022-08-19T11:34:25;12.38;;;10.70;;
34242;SDS011;20504;43.214;27.920;2022-08-19T11:36:54;13.65;;;10.82;;
34242;SDS011;20504;43.214;27.920;2022-08-19T11:39:23;16.67;;;10.73;;
34242;SDS011;20504;43.214;27.920;2022-08-19T11:41:49;17.40;;;11.48;;
34242;SDS011;20504;43.214;27.920;2022-08-19T11:53:09;15.98;;;10.82;;
34242;SDS011;20504;43.214;27.920;2022-08-19T11:55:37;13.40;;;9.90;;
34242;SDS011;20504;43.214;27.920;2022-08-19T11:58:04;13.90;;;10.68;;
34242;SDS011;20504;43.214;27.920;2022-08-19T12:00:32;13.05;;;10.25;;
34242;SDS011;20504;43.214;27.920;2022-08-19T12:11:30;13.98;;;10.18;;
34242;SDS011;20504;43.214;27.920;2022-08-19T12:14:15;12.65;;;9.50;;
34242;SDS011;20504;43.214;27.920;2022-08-19T12:16:43;12.27;;;9.68;;
34242;SDS011;20504;43.214;27.920;2022-08-19T12:19:11;13.63;;;10.13;;
34242;SDS011;20504;43.214;27.920;2022-08-19T12:21:36;13.32;;;10.10;;
34242;SDS011;20504;43.214;27.920;2022-08-19T12:24:02;18.20;;;9.82;;
34242;SDS011;20504;43.214;27.920;2022-08-19T12:26:29;14.32;;;10.43;;
34242;SDS011;20504;43.214;27.920;2022-08-19T12:28:56;12.13;;;10.13;;
34242;SDS011;20504;43.214;27.920;2022-08-19T12:31:23;15.13;;;10.50;;
34242;SDS011;20504;43.214;27.920;2022-08-19T12:33:49;15.63;;;9.30;;
34242;SDS011;20504;43.214;27.920;2022-08-19T12:39:29;15.95;;;10.20;;
34242;SDS011;20504;43.214;27.920;2022-08-19T12:42:48;17.27;;;9.82;;
34242;SDS011;20504;43.214;27.920;2022-08-19T12:45:16;12.90;;;9.70;;
34242;SDS011;20504;43.214;27.920;2022-08-19T12:47:42;13.98;;;9.35;;
34242;SDS011;20504;43.214;27.920;2022-08-19T12:50:08;10.52;;;9.00;;
34242;SDS011;20504;43.214;27.920;2022-08-19T12:52:34;11.60;;;8.63;;
34242;SDS011;20504;43.214;27.920;2022-08-19T12:55:01;14.82;;;8.98;;
34242;SDS011;20504;43.214;27.920;2022-08-19T12:57:27;11.25;;;9.45;;
34242;SDS011;20504;43.214;27.920;2022-08-19T12:59:52;13.15;;;8.93;;
34242;SDS011;20504;43.214;27.920;2022-08-19T13:02:21;15.50;;;8.68;;
34242;SDS011;20504;43.214;27.920;2022-08-19T13:04:47;18.92;;;8.65;;
34242;SDS011;20504;43.214;27.920;2022-08-19T13:07:13;13.50;;;9.55;;
34242;SDS011;20504;43.214;27.920;2022-08-19T13:09:38;12.95;;;9.52;;
34242;SDS011;20504;43.214;27.920;2022-08-19T13:12:06;15.43;;;9.48;;
34242;SDS011;20504;43.214;27.920;2022-08-19T13:14:38;14.23;;;8.75;;
34242;SDS011;20504;43.214;27.920;2022-08-19T13:20:29;13.45;;;9.13;;
34242;SDS011;20504;43.214;27.920;2022-08-19T13:25:29;13.53;;;8.63;;
34242;SDS011;20504;43.214;27.920;2022-08-19T13:27:54;13.75;;;8.73;;
34242;SDS011;20504;43.214;27.920;2022-08-19T13:30:20;11.85;;;8.75;;
34242;SDS011;20504;43.214;27.920;2022-08-19T13:33:04;14.30;;;8.93;;
34242;SDS011;20504;43.214;27.920;2022-08-19T13:35:39;12.10;;;9.20;;
34242;SDS011;20504;43.214;27.920;2022-08-19T13:38:05;14.63;;;8.82;;
34242;SDS011;20504;43.214;27.920;2022-08-19T13:40:30;15.07;;;8.55;;
34242;SDS011;20504;43.214;27.920;2022-08-19T13:43:21;12.20;;;8.52;;
34242;SDS011;20504;43.214;27.920;2022-08-19T13:46:30;10.93;;;8.43;;
34242;SDS011;20504;43.214;27.920;2022-08-19T13:48:58;11.95;;;7.75;;
34242;SDS011;20504;43.214;27.920;2022-08-19T13:51:23;11.80;;;8.00;;
34242;SDS011;20504;43.214;27.920;2022-08-19T13:53:49;11.20;;;7.68;;
34242;SDS011;20504;43.214;27.920;2022-08-19T13:56:16;11.50;;;7.95;;
34242;SDS011;20504;43.214;27.920;2022-08-19T13:58:42;10.73;;;8.32;;
34242;SDS011;20504;43.214;27.920;2022-08-19T14:01:08;12.48;;;8.13;;
34242;SDS011;20504;43.214;27.920;2022-08-19T14:03:34;13.98;;;9.32;;
34242;SDS011;20504;43.214;27.920;2022-08-19T14:05:59;13.68;;;8.25;;
34242;SDS011;20504;43.214;27.920;2022-08-19T14:08:25;14.70;;;8.27;;
34242;SDS011;20504;43.214;27.920;2022-08-19T14:10:52;13.27;;;7.72;;
34242;SDS011;20504;43.214;27.920;2022-08-19T14:16:30;15.50;;;7.63;;
34242;SDS011;20504;43.214;27.920;2022-08-19T14:19:19;12.50;;;7.53;;
34242;SDS011;20504;43.214;27.920;2022-08-19T14:22:03;13.65;;;7.40;;
34242;SDS011;20504;43.214;27.920;2022-08-19T14:24:30;15.90;;;7.80;;
34242;SDS011;20504;43.214;27.920;2022-08-19T14:26:59;16.75;;;8.10;;
34242;SDS011;20504;43.214;27.920;2022-08-19T14:29:28;12.07;;;7.63;;
34242;SDS011;20504;43.214;27.920;2022-08-19T14:31:54;12.15;;;7.82;;
34242;SDS011;20504;43.214;27.920;2022-08-19T14:34:23;13.43;;;8.50;;
34242;SDS011;20504;43.214;27.920;2022-08-19T14:36:49;13.85;;;8.88;;
34242;SDS011;20504;43.214;27.920;2022-08-19T14:39:15;8.57;;;7.70;;
34242;SDS011;20504;43.214;27.920;2022-08-19T14:41:40;10.27;;;8.30;;
34242;SDS011;20504;43.214;27.920;2022-08-19T14:44:15;10.82;;;7.72;;
34242;SDS011;20504;43.214;27.920;2022-08-19T14:46:42;13.90;;;7.38;;
34242;SDS011;20504;43.214;27.920;2022-08-19T14:49:10;14.38;;;8.43;;
34242;SDS011;20504;43.214;27.920;2022-08-19T14:51:35;13.68;;;7.32;;
34242;SDS011;20504;43.214;27.920;2022-08-19T14:54:00;9.05;;;7.57;;
34242;SDS011;20504;43.214;27.920;2022-08-19T14:56:27;12.32;;;7.40;;
34242;SDS011;20504;43.214;27.920;2022-08-19T14:58:53;12.57;;;8.20;;
34242;SDS011;20504;43.214;27.920;2022-08-19T15:01:19;13.23;;;9.18;;
34242;SDS011;20504;43.214;27.920;2022-08-19T15:03:45;11.70;;;8.68;;
34242;SDS011;20504;43.214;27.920;2022-08-19T15:06:11;16.63;;;8.55;;
34242;SDS011;20504;43.214;27.920;2022-08-19T15:08:37;13.40;;;7.95;;
34242;SDS011;20504;43.214;27.920;2022-08-19T15:11:06;10.95;;;6.85;;
34242;SDS011;20504;43.214;27.920;2022-08-19T15:13:32;13.63;;;7.75;;
34242;SDS011;20504;43.214;27.920;2022-08-19T15:15:57;12.38;;;7.05;;
34242;SDS011;20504;43.214;27.920;2022-08-19T15:21:40;9.52;;;7.07;;
34242;SDS011;20504;43.214;27.920;2022-08-19T15:24:06;15.25;;;7.72;;
34242;SDS011;20504;43.214;27.920;2022-08-19T15:26:31;12.05;;;7.07;;
34242;SDS011;20504;43.214;27.920;2022-08-19T15:31:52;14.00;;;7.70;;
34242;SDS011;20504;43.214;27.920;2022-08-19T15:36:59;15.07;;;8.13;;
34242;SDS011;20504;43.214;27.920;2022-08-19T15:39:26;14.77;;;8.15;;
34242;SDS011;20504;43.214;27.920;2022-08-19T15:41:55;17.27;;;9.25;;
34242;SDS011;20504;43.214;27.920;2022-08-19T15:44:27;10.48;;;8.45;;
34242;SDS011;20504;43.214;27.920;2022-08-19T15:47:05;11.55;;;8.13;;
34242;SDS011;20504;43.214;27.920;2022-08-19T15:49:31;9.73;;;8.55;;
34242;SDS011;20504;43.214;27.920;2022-08-19T15:51:57;13.27;;;9.45;;
34242;SDS011;20504;43.214;27.920;2022-08-19T15:54:24;17.13;;;10.10;;
34242;SDS011;20504;43.214;27.920;2022-08-19T15:56:49;18.30;;;9.53;;
34242;SDS011;20504;43.214;27.920;2022-08-19T15:59:34;16.65;;;10.05;;
34242;SDS011;20504;43.214;27.920;2022-08-19T16:02:24;14.65;;;9.82;;
34242;SDS011;20504;43.214;27.920;2022-08-19T16:05:13;17.30;;;9.43;;
34242;SDS011;20504;43.214;27.920;2022-08-19T16:08:11;13.98;;;9.60;;
34242;SDS011;20504;43.214;27.920;2022-08-19T16:10:37;16.77;;;10.00;;
34242;SDS011;20504;43.214;27.920;2022-08-19T16:13:04;22.55;;;10.00;;
34242;SDS011;20504;43.214;27.920;2022-08-19T16:15:36;13.57;;;10.02;;
34242;SDS011;20504;43.214;27.920;2022-08-19T16:36:32;14.48;;;12.05;;
34242;SDS011;20504;43.214;27.920;2022-08-19T16:39:11;19.83;;;11.85;;
34242;SDS011;20504;43.214;27.920;2022-08-19T16:44:52;19.85;;;10.05;;
34242;SDS011;20504;43.214;27.920;2022-08-19T16:51:05;11.50;;;9.73;;
34242;SDS011;20504;43.214;27.920;2022-08-19T16:53:54;14.60;;;10.15;;
34242;SDS011;20504;43.214;27.920;2022-08-19T16:57:04;15.25;;;11.23;;
34242;SDS011;20504;43.214;27.920;2022-08-19T17:18:57;14.77;;;10.38;;
34242;SDS011;20504;43.214;27.920;2022-08-19T17:27:03;14.68;;;10.70;;
34242;SDS011;20504;43.214;27.920;2022-08-19T17:30:18;14.60;;;12.60;;
34242;SDS011;20504;43.214;27.920;2022-08-19T17:33:36;14.45;;;11.13;;
34242;SDS011;20504;43.214;27.920;2022-08-19T17:36:49;17.23;;;11.05;;